KSZL/SZL METAR and TAF weather

Enter ICAO airport designator
Station Type Date Time Source
KSZL METAR 2021/09/23 15:56 UTC NOAA

KSZL 231556Z 26007KT 10SM CLR 20/07 A3013 RMK AO2A SLP204 T02020072 $


Station Type Date Time Source
KSZL Decoded METAR 2021/09/23 15:56 UTC NOAA

Whiteman Air Force Base, MO, United States (KSZL) 38-44N 093-33W
Sep 23, 2021 - 11:56 AM EDT / 2021.09.23 1556 UTC
Wind: from the W (260 degrees) at 8 MPH (7 KT):0
Visibility: 10 mile(s):0
Sky conditions: clear
Temperature: 68.4 F (20.2 C)
Dew Point: 45.0 F (7.2 C)
Relative Humidity: 42%
Pressure (altimeter): 30.13 in. Hg (1020 hPa)
ob: KSZL 231556Z 26007KT 10SM CLR 20/07 A3013 RMK AO2A SLP204 T02020072
cycle: 16

Station Type Date Time Source
KSZL TAF 2021/09/23 11:12 UTC NOAA

TAF KSZL 231100Z 2311/2417 23010KT 9999 SKC QNH2999INS
BECMG 2415/2416 21012G20KT 9999 BKN150 QNH2998INS TX24/2321Z TN08/2311Z

Example: see airport list